createdAt,value
2018-09-11T00:01:29.355Z,9.20
2018-09-11T00:04:00.346Z,7.17
2018-09-11T00:06:31.856Z,8.23
2018-09-11T00:09:03.097Z,6.47
2018-09-11T00:11:33.851Z,8.47
2018-09-11T00:14:04.656Z,7.60
2018-09-11T00:16:35.243Z,6.67
2018-09-11T00:19:05.715Z,9.97
2018-09-11T00:21:36.948Z,12.07
2018-09-11T00:24:07.411Z,8.30
2018-09-11T00:26:38.195Z,9.80
2018-09-11T00:29:09.152Z,8.70
2018-09-11T00:31:40.050Z,5.53
2018-09-11T00:34:12.317Z,8.87
2018-09-11T00:36:43.479Z,8.17
2018-09-11T00:39:14.323Z,7.63
2018-09-11T00:41:44.356Z,7.70
2018-09-11T00:44:14.139Z,9.00
2018-09-11T00:46:44.919Z,11.43
2018-09-11T00:49:14.743Z,7.53
2018-09-11T00:51:45.181Z,10.97
2018-09-11T00:54:15.715Z,8.20
2018-09-11T00:56:45.755Z,7.73
2018-09-11T00:59:16.055Z,9.00
2018-09-11T01:01:45.890Z,10.93
2018-09-11T01:04:16.465Z,8.33
2018-09-11T01:06:46.503Z,9.93
2018-09-11T01:09:16.404Z,12.63
2018-09-11T01:11:46.338Z,10.50
2018-09-11T01:14:16.359Z,11.83
2018-09-11T01:16:46.502Z,13.17
2018-09-11T01:19:16.579Z,14.67
2018-09-11T01:21:47.848Z,13.67
2018-09-11T01:24:18.063Z,13.37
2018-09-11T01:26:48.053Z,12.17
2018-09-11T01:29:18.082Z,12.70
2018-09-11T01:31:48.391Z,13.80
2018-09-11T01:34:18.558Z,11.73
2018-09-11T01:36:49.023Z,10.47
2018-09-11T01:39:19.041Z,11.27
2018-09-11T01:41:49.323Z,11.47
2018-09-11T01:44:19.762Z,12.40
2018-09-11T01:46:49.560Z,13.27
2018-09-11T01:49:19.807Z,11.40
2018-09-11T01:51:50.091Z,13.33
2018-09-11T01:54:20.231Z,14.93
2018-09-11T01:56:50.462Z,13.67
2018-09-11T01:59:20.433Z,12.93
2018-09-11T02:01:50.320Z,11.60
2018-09-11T02:04:20.956Z,12.60
2018-09-11T02:06:50.989Z,14.13
2018-09-11T02:09:21.247Z,20.10
2018-09-11T02:11:51.081Z,14.60
2018-09-11T02:14:20.964Z,13.93
2018-09-11T02:16:51.090Z,11.57
2018-09-11T02:19:20.946Z,13.67
2018-09-11T02:21:50.982Z,12.90
2018-09-11T02:24:21.193Z,12.00
2018-09-11T02:26:51.004Z,13.33
2018-09-11T02:29:20.895Z,12.27
2018-09-11T02:31:51.382Z,10.10
2018-09-11T02:34:21.190Z,11.20
2018-09-11T02:36:50.983Z,14.37
2018-09-11T02:39:20.798Z,13.43
2018-09-11T02:41:51.704Z,12.60
2018-09-11T02:44:21.544Z,13.37
2018-09-11T02:46:51.419Z,13.63
2018-09-11T02:49:21.752Z,14.53
2018-09-11T02:51:52.190Z,11.30
2018-09-11T02:54:22.055Z,23.47
2018-09-11T02:56:53.256Z,17.50
2018-09-11T02:59:23.260Z,18.43
2018-09-11T03:01:53.086Z,18.00
2018-09-11T03:04:23.608Z,17.57
2018-09-11T03:06:58.022Z,16.40
2018-09-11T03:09:28.351Z,16.60
2018-09-11T03:11:58.899Z,15.27
2018-09-11T03:14:28.683Z,16.67
2018-09-11T03:16:58.526Z,14.53
2018-09-11T03:19:28.391Z,15.67
2018-09-11T03:21:58.192Z,13.70
2018-09-11T03:24:28.251Z,15.80
2018-09-11T03:26:58.390Z,17.77
2018-09-11T03:29:29.099Z,16.60
2018-09-11T03:31:59.108Z,15.90
2018-09-11T03:34:29.447Z,16.63
2018-09-11T03:36:59.686Z,14.13
2018-09-11T03:39:29.787Z,11.70
2018-09-11T03:42:00.175Z,18.00
2018-09-11T03:44:30.056Z,16.50
2018-09-11T03:47:00.047Z,20.00
2018-09-11T03:49:30.227Z,17.90
2018-09-11T03:52:00.231Z,14.70
2018-09-11T03:54:30.374Z,15.37
2018-09-11T03:57:00.454Z,15.33
2018-09-11T03:59:30.903Z,14.90
2018-09-11T04:02:00.993Z,11.43
2018-09-11T04:04:31.736Z,15.70
2018-09-11T04:07:02.750Z,16.37
2018-09-11T04:09:34.354Z,18.00
2018-09-11T04:12:04.696Z,16.67
2018-09-11T04:14:35.474Z,16.60
2018-09-11T04:17:05.897Z,15.00
2018-09-11T04:19:36.198Z,14.23
2018-09-11T04:22:06.011Z,13.70
2018-09-11T04:24:35.948Z,16.50
2018-09-11T04:27:05.875Z,16.90
2018-09-11T04:29:36.310Z,12.17
2018-09-11T04:32:06.173Z,22.23
2018-09-11T04:34:36.035Z,19.60
2018-09-11T04:37:06.293Z,15.17
2018-09-11T04:39:36.263Z,13.53
2018-09-11T04:42:06.533Z,19.70
2018-09-11T04:44:36.335Z,22.10
2018-09-11T04:47:06.375Z,17.83
2018-09-11T04:49:36.912Z,19.57
2018-09-11T04:52:07.247Z,22.40
2018-09-11T04:54:37.389Z,21.50
2018-09-11T04:57:07.276Z,16.83
2018-09-11T04:59:37.912Z,22.10
2018-09-11T05:02:07.927Z,19.00
2018-09-11T05:04:38.535Z,18.53
2018-09-11T05:07:08.966Z,21.83
2018-09-11T05:09:39.095Z,19.73
2018-09-11T05:12:08.907Z,19.47
2018-09-11T05:14:39.468Z,25.00
2018-09-11T05:17:09.266Z,21.67
2018-09-11T05:19:39.216Z,17.90
2018-09-11T05:22:09.794Z,17.17
2018-09-11T05:24:39.746Z,24.97
2018-09-11T05:27:09.576Z,15.40
2018-09-11T05:29:39.501Z,21.87
2018-09-11T05:32:09.680Z,20.03
2018-09-11T05:34:39.535Z,16.77
2018-09-11T05:37:09.570Z,14.47
2018-09-11T05:39:39.395Z,13.80
2018-09-11T05:42:09.723Z,17.13
2018-09-11T05:44:39.847Z,16.50
2018-09-11T05:47:09.684Z,14.33
2018-09-11T05:49:39.913Z,13.87
2018-09-11T05:52:09.817Z,14.50
2018-09-11T05:54:40.198Z,14.13
2018-09-11T05:57:10.033Z,15.20
2018-09-11T05:59:39.898Z,18.00
2018-09-11T06:02:10.306Z,16.23
2018-09-11T06:04:40.327Z,15.07
2018-09-11T06:07:10.430Z,17.27
2018-09-11T06:09:40.679Z,16.03
2018-09-11T06:12:10.494Z,16.17
2018-09-11T06:14:42.960Z,13.87
2018-09-11T06:17:13.590Z,17.57
2018-09-11T06:19:43.714Z,12.20
2018-09-11T06:22:14.337Z,12.27
2018-09-11T06:24:55.041Z,9.87
2018-09-11T06:27:25.030Z,14.13
2018-09-11T06:29:55.646Z,11.63
2018-09-11T06:32:25.525Z,14.93
2018-09-11T06:34:55.688Z,16.83
2018-09-11T06:37:28.753Z,12.63
2018-09-11T06:39:59.326Z,10.23
2018-09-11T06:42:29.338Z,15.07
2018-09-11T06:45:05.422Z,13.23
2018-09-11T06:47:36.918Z,14.73
2018-09-11T06:50:07.750Z,13.23
2018-09-11T06:52:38.508Z,11.87
2018-09-11T06:55:09.309Z,10.77
2018-09-11T06:57:40.455Z,13.90
2018-09-11T07:00:11.250Z,12.40
2018-09-11T07:02:44.939Z,15.17
2018-09-11T07:05:15.321Z,14.40
2018-09-11T07:07:45.736Z,13.87
2018-09-11T07:10:18.919Z,11.67
2018-09-11T07:12:49.329Z,10.97
2018-09-11T07:15:19.198Z,9.40
2018-09-11T07:17:49.730Z,15.00
2018-09-11T07:20:19.961Z,15.20
2018-09-11T07:22:49.630Z,11.50
2018-09-11T07:25:20.339Z,16.30
2018-09-11T07:27:50.619Z,11.83
2018-09-11T07:30:20.727Z,15.23
2018-09-11T07:32:50.655Z,14.70
2018-09-11T07:35:20.622Z,14.40
2018-09-11T07:37:50.911Z,15.93
2018-09-11T07:40:22.865Z,13.77
2018-09-11T07:42:53.359Z,14.13
2018-09-11T07:45:23.739Z,18.03
2018-09-11T07:47:53.626Z,18.07
2018-09-11T07:50:23.531Z,12.97
2018-09-11T07:52:53.797Z,14.33
2018-09-11T07:55:23.734Z,18.90
2018-09-11T07:57:53.660Z,15.80
2018-09-11T08:00:24.210Z,18.37
2018-09-11T08:02:55.787Z,17.97
2018-09-11T08:05:25.944Z,18.93
2018-09-11T08:07:57.218Z,17.53
2018-09-11T08:10:27.846Z,15.43
2018-09-11T08:12:58.218Z,17.30
2018-09-11T08:15:28.097Z,19.37
2018-09-11T08:17:57.952Z,17.03
2018-09-11T08:20:27.849Z,18.67
2018-09-11T08:22:57.724Z,18.00
2018-09-11T08:25:27.890Z,19.47
2018-09-11T08:27:57.749Z,16.67
2018-09-11T08:30:31.270Z,17.93
2018-09-11T08:33:02.703Z,21.53
2018-09-11T08:35:32.692Z,16.10
2018-09-11T08:38:02.598Z,16.33
2018-09-11T08:40:32.450Z,17.00
2018-09-11T08:43:02.396Z,18.23
2018-09-11T08:45:32.839Z,14.53
2018-09-11T08:48:03.237Z,15.70
2018-09-11T08:50:33.652Z,15.73
2018-09-11T08:53:04.135Z,12.90
2018-09-11T08:55:34.863Z,16.50
2018-09-11T08:58:05.594Z,14.47
2018-09-11T09:00:35.914Z,13.13
2018-09-11T09:03:06.637Z,19.77
2018-09-11T09:05:37.031Z,11.70
2018-09-11T09:08:07.412Z,13.70
2018-09-11T09:10:37.754Z,14.20
2018-09-11T09:13:08.187Z,13.00
2018-09-11T09:15:38.599Z,11.83
2018-09-11T09:18:09.336Z,13.37
2018-09-11T09:20:39.771Z,12.63
2018-09-11T09:23:10.182Z,16.00
2018-09-11T09:25:40.842Z,12.63
2018-09-11T09:28:11.238Z,12.13
2018-09-11T09:30:41.672Z,15.40
2018-09-11T09:33:12.423Z,11.17
2018-09-11T09:35:42.744Z,12.07
2018-09-11T09:38:13.117Z,9.70
2018-09-11T09:40:43.476Z,8.20
2018-09-11T09:43:14.273Z,12.07
2018-09-11T09:45:44.740Z,10.53
2018-09-11T09:48:21.247Z,10.23
2018-09-11T09:50:52.525Z,11.83
2018-09-11T09:53:22.924Z,8.83
2018-09-11T09:55:53.673Z,9.33
2018-09-11T09:58:24.246Z,11.17
2018-09-11T10:00:59.706Z,9.83
2018-09-11T10:03:30.333Z,10.43
2018-09-11T10:06:00.170Z,10.47
2018-09-11T10:08:30.409Z,12.00
2018-09-11T10:11:00.350Z,14.80
2018-09-11T10:13:30.229Z,10.00
2018-09-11T10:16:00.643Z,9.97
2018-09-11T10:18:30.517Z,12.87
2018-09-11T10:21:00.377Z,11.47
2018-09-11T10:23:30.250Z,8.87
2018-09-11T10:26:00.400Z,12.60
2018-09-11T10:28:30.236Z,13.30
2018-09-11T10:31:00.833Z,9.30
2018-09-11T10:33:30.753Z,15.80
2018-09-11T10:36:00.612Z,9.30
2018-09-11T10:38:31.643Z,15.13
2018-09-11T10:41:01.664Z,11.07
2018-09-11T10:43:31.528Z,11.73
2018-09-11T10:46:01.479Z,8.90
2018-09-11T10:48:31.522Z,12.07
2018-09-11T10:51:01.382Z,8.80
2018-09-11T10:53:31.226Z,10.83
2018-09-11T10:56:01.113Z,12.23
2018-09-11T10:58:31.293Z,10.03
2018-09-11T11:01:01.165Z,13.53
2018-09-11T11:03:30.978Z,7.63
2018-09-11T11:06:01.195Z,9.10
2018-09-11T11:08:31.069Z,10.67
2018-09-11T11:11:00.970Z,10.13
2018-09-11T11:13:30.766Z,10.93
2018-09-11T11:16:00.590Z,23.60
2018-09-11T11:18:30.429Z,10.37
2018-09-11T11:21:00.267Z,10.10
2018-09-11T11:23:30.437Z,13.10
2018-09-11T11:26:00.253Z,8.30
2018-09-11T11:28:30.164Z,11.90
2018-09-11T11:31:00.014Z,13.87
2018-09-11T11:33:30.691Z,8.87
2018-09-11T11:36:00.884Z,9.90
2018-09-11T11:38:30.805Z,10.37
2018-09-11T11:41:00.697Z,12.43
2018-09-11T11:43:30.821Z,8.93
2018-09-11T11:46:00.717Z,10.90
2018-09-11T11:48:30.562Z,9.27
2018-09-11T11:51:00.701Z,11.57
2018-09-11T11:53:30.595Z,10.50
2018-09-11T11:56:00.504Z,10.47
2018-09-11T11:58:30.722Z,8.97
2018-09-11T12:01:00.675Z,9.23
2018-09-11T12:03:30.544Z,7.20
2018-09-11T12:06:01.097Z,8.43
2018-09-11T12:11:33.633Z,7.53
2018-09-11T12:14:03.526Z,9.63
2018-09-11T12:16:33.357Z,9.60
2018-09-11T12:19:03.199Z,10.63
2018-09-11T12:21:33.009Z,9.60
2018-09-11T12:24:03.204Z,13.20
2018-09-11T12:26:33.167Z,9.93
2018-09-11T12:29:03.011Z,9.83
2018-09-11T12:31:32.844Z,10.50
2018-09-11T12:34:02.704Z,8.77
2018-09-11T12:36:32.576Z,9.00
2018-09-11T12:39:02.417Z,9.23
2018-09-11T12:41:32.233Z,14.87
2018-09-11T12:44:02.074Z,8.27
2018-09-11T12:46:32.148Z,11.53
2018-09-11T12:49:01.903Z,11.30
2018-09-11T12:51:31.746Z,11.17
2018-09-11T12:54:01.955Z,12.97
2018-09-11T12:56:32.385Z,15.10
2018-09-11T12:59:02.285Z,15.17
2018-09-11T13:01:32.148Z,8.60
2018-09-11T13:04:02.110Z,12.00
2018-09-11T13:06:31.941Z,9.57
2018-09-11T13:09:01.844Z,7.93
2018-09-11T13:11:31.695Z,9.07
2018-09-11T13:14:01.625Z,9.07
2018-09-11T13:16:31.522Z,9.03
2018-09-11T13:19:01.396Z,9.60
2018-09-11T13:21:31.495Z,11.67
2018-09-11T13:24:01.415Z,10.20
2018-09-11T13:26:31.282Z,7.97
2018-09-11T13:29:01.395Z,9.93
2018-09-11T13:31:31.338Z,9.40
2018-09-11T13:34:01.247Z,8.67
2018-09-11T13:36:31.449Z,10.33
2018-09-11T13:39:01.502Z,11.40
2018-09-11T13:41:31.339Z,10.40
2018-09-11T13:44:01.607Z,10.20
2018-09-11T13:46:31.443Z,10.83
2018-09-11T13:49:01.303Z,9.10
2018-09-11T13:51:31.815Z,12.40
2018-09-11T13:54:01.831Z,7.47
2018-09-11T13:56:31.758Z,9.17
2018-09-11T13:59:01.629Z,7.83
2018-09-11T14:01:31.469Z,9.10
2018-09-11T14:04:01.874Z,11.47
2018-09-11T14:06:43.003Z,7.27
2018-09-11T14:09:15.700Z,11.23
2018-09-11T14:11:45.879Z,8.50
2018-09-11T14:14:16.170Z,10.83
2018-09-11T14:16:46.057Z,11.60
2018-09-11T14:19:16.467Z,12.03
2018-09-11T14:21:46.855Z,17.23
2018-09-11T14:24:16.776Z,13.07
2018-09-11T14:26:46.687Z,17.10
2018-09-11T14:29:16.706Z,15.17
2018-09-11T14:31:46.559Z,15.03
2018-09-11T14:34:16.409Z,14.20
2018-09-11T14:36:46.279Z,15.60
2018-09-11T14:39:16.147Z,16.93
2018-09-11T14:41:46.457Z,21.30
2018-09-11T14:44:16.320Z,27.30
2018-09-11T14:46:46.142Z,28.57
2018-09-11T14:49:16.602Z,38.57
2018-09-11T14:51:46.511Z,31.03
2018-09-11T14:54:16.377Z,34.70
2018-09-11T14:56:46.768Z,37.67
2018-09-11T14:59:16.686Z,36.70
2018-09-11T15:01:46.638Z,41.93
2018-09-11T15:04:17.028Z,48.27
2018-09-11T15:06:47.035Z,51.63
2018-09-11T15:09:16.895Z,50.27
2018-09-11T15:11:47.329Z,51.07
2018-09-11T15:14:17.230Z,63.90
2018-09-11T15:16:47.084Z,57.97
2018-09-11T15:19:17.444Z,50.33
2018-09-11T15:21:47.390Z,48.67
2018-09-11T15:24:17.254Z,49.63
2018-09-11T15:26:47.290Z,48.07
2018-09-11T15:29:17.222Z,48.37
2018-09-11T15:31:47.110Z,41.20
2018-09-11T15:34:17.416Z,35.43
2018-09-11T15:36:47.913Z,21.47
2018-09-11T15:39:17.866Z,20.10
2018-09-11T15:41:47.895Z,17.87
2018-09-11T15:44:17.773Z,17.87
2018-09-11T15:46:47.730Z,15.50
2018-09-11T15:49:17.970Z,14.67
2018-09-11T15:51:47.830Z,12.87
2018-09-11T15:54:17.710Z,15.57
2018-09-11T15:56:47.609Z,12.37
2018-09-11T15:59:17.594Z,12.57
2018-09-11T16:01:47.687Z,10.33
2018-09-11T16:04:17.630Z,10.37
2018-09-11T16:06:47.542Z,13.20
2018-09-11T16:09:17.419Z,10.80
2018-09-11T16:11:47.270Z,13.93
2018-09-11T16:14:17.142Z,8.67
2018-09-11T16:16:47.026Z,13.77
2018-09-11T16:19:17.235Z,12.87
2018-09-11T16:21:47.126Z,10.23
2018-09-11T16:24:17.033Z,12.13
2018-09-11T16:26:47.329Z,12.60
2018-09-11T16:29:17.472Z,9.13
2018-09-11T16:31:47.904Z,13.30
2018-09-11T16:34:19.693Z,10.50
2018-09-11T16:36:49.589Z,14.37
2018-09-11T16:39:19.452Z,13.83
2018-09-11T16:41:49.369Z,18.47
2018-09-11T16:44:19.294Z,16.07
2018-09-11T16:46:49.702Z,14.07
2018-09-11T16:49:19.681Z,20.00
2018-09-11T16:51:49.727Z,13.30
2018-09-11T16:54:20.074Z,17.20
2018-09-11T16:56:49.921Z,16.40
2018-09-11T16:59:19.900Z,18.50
2018-09-11T17:01:50.242Z,15.07
2018-09-11T17:04:20.073Z,20.77
2018-09-11T17:06:49.986Z,16.73
2018-09-11T17:09:20.385Z,17.30
2018-09-11T17:11:50.274Z,19.33
2018-09-11T17:14:20.105Z,18.80
2018-09-11T17:16:50.310Z,16.70
2018-09-11T17:19:20.154Z,15.33
2018-09-11T17:21:50.013Z,15.47
2018-09-11T17:24:20.370Z,16.30
2018-09-11T17:26:50.194Z,16.40
2018-09-11T17:29:20.093Z,15.20
2018-09-11T17:31:50.410Z,15.77
2018-09-11T17:34:20.309Z,17.67
2018-09-11T17:36:50.203Z,16.27
2018-09-11T17:39:20.142Z,14.43
2018-09-11T17:41:50.026Z,12.37
2018-09-11T17:44:19.868Z,12.10
2018-09-11T17:46:49.751Z,12.80
2018-09-11T17:49:19.642Z,13.73
2018-09-11T17:51:49.469Z,12.97
2018-09-11T17:54:19.329Z,13.17
2018-09-11T17:56:49.270Z,15.23
2018-09-11T17:59:19.218Z,17.10
2018-09-11T18:01:49.488Z,17.27
2018-09-11T18:04:19.422Z,18.80
2018-09-11T18:06:49.510Z,15.83
2018-09-11T18:09:19.847Z,16.20
2018-09-11T18:11:49.703Z,15.03
2018-09-11T18:14:19.522Z,20.57
2018-09-11T18:16:49.843Z,16.63
2018-09-11T18:19:19.761Z,17.63
2018-09-11T18:21:49.715Z,17.67
2018-09-11T18:24:19.597Z,15.17
2018-09-11T18:26:49.463Z,17.03
2018-09-11T18:29:19.742Z,18.73
2018-09-11T18:31:49.703Z,17.83
2018-09-11T18:34:19.601Z,17.57
2018-09-11T18:36:49.508Z,14.87
2018-09-11T18:39:19.462Z,16.57
2018-09-11T18:41:49.422Z,17.97
2018-09-11T18:44:19.374Z,18.43
2018-09-11T18:46:49.714Z,14.57
2018-09-11T18:49:19.634Z,17.77
2018-09-11T18:51:49.597Z,17.67
2018-09-11T18:54:19.454Z,17.17
2018-09-11T18:56:49.379Z,19.73
2018-09-11T18:59:20.432Z,14.30
2018-09-11T19:01:50.287Z,17.13
2018-09-11T19:04:20.162Z,14.17
2018-09-11T19:06:50.526Z,18.20
2018-09-11T19:09:20.408Z,19.93
2018-09-11T19:11:50.631Z,17.53
2018-09-11T19:14:20.956Z,18.67
2018-09-11T19:16:50.863Z,16.50
2018-09-11T19:19:20.731Z,16.03
2018-09-11T19:21:50.570Z,17.03
2018-09-11T19:24:20.426Z,15.27
2018-09-11T19:26:50.272Z,12.20
2018-09-11T19:29:20.166Z,13.10
2018-09-11T19:31:50.058Z,13.67
2018-09-11T19:34:20.420Z,15.03
2018-09-11T19:36:50.255Z,14.30
2018-09-11T19:39:20.087Z,16.67
2018-09-11T19:41:50.038Z,14.90
2018-09-11T19:44:19.923Z,16.50
2018-09-11T19:46:49.827Z,14.67
2018-09-11T19:49:20.102Z,14.77
2018-09-11T19:51:49.976Z,13.83
2018-09-11T19:54:19.871Z,14.53
2018-09-11T19:56:49.781Z,16.07
2018-09-11T19:59:19.674Z,14.53
2018-09-11T20:01:49.565Z,15.37
2018-09-11T20:04:20.666Z,14.97
2018-09-11T20:06:51.022Z,12.53
2018-09-11T20:09:20.938Z,13.50
2018-09-11T20:11:51.789Z,9.27
2018-09-11T20:14:21.970Z,12.30
2018-09-11T20:16:51.934Z,14.67
2018-09-11T20:19:22.205Z,8.63
2018-09-11T20:23:11.342Z,9.77
2018-09-11T20:25:41.855Z,8.17
2018-09-11T20:28:11.782Z,14.67
2018-09-11T20:30:41.973Z,12.80
2018-09-11T20:33:12.059Z,13.67
2018-09-11T20:35:41.935Z,14.77
2018-09-11T20:38:12.251Z,10.87
2018-09-11T20:40:42.222Z,10.77
2018-09-11T20:43:12.069Z,12.33
2018-09-11T20:45:42.423Z,14.63
2018-09-11T20:48:12.258Z,14.70
2018-09-11T20:50:42.099Z,10.60
2018-09-11T20:53:12.714Z,13.27
2018-09-11T20:55:42.971Z,13.83
2018-09-11T20:58:12.871Z,15.70
2018-09-11T21:00:43.142Z,13.80
2018-09-11T21:03:13.113Z,17.30
2018-09-11T21:05:42.999Z,18.13
2018-09-11T21:08:13.650Z,18.63
2018-09-11T21:10:43.510Z,19.97
2018-09-11T21:13:14.332Z,19.50
2018-09-11T21:15:44.710Z,18.60
2018-09-11T21:18:14.542Z,17.60
2018-09-11T21:20:45.030Z,20.17
2018-09-11T21:23:15.279Z,16.90
2018-09-11T21:25:45.510Z,18.43
2018-09-11T21:28:15.389Z,19.27
2018-09-11T21:30:46.943Z,19.07
2018-09-11T21:33:17.446Z,17.00
2018-09-11T21:35:48.823Z,19.43
2018-09-11T21:38:19.102Z,17.40
2018-09-11T21:40:49.219Z,21.80
2018-09-11T21:43:19.094Z,18.27
2018-09-11T21:45:49.364Z,16.50
2018-09-11T21:48:19.658Z,14.70
2018-09-11T21:50:49.677Z,17.50
2018-09-11T21:53:19.933Z,15.10
2018-09-11T21:55:50.098Z,14.83
2018-09-11T21:58:20.305Z,17.63
2018-09-11T22:00:55.322Z,16.43
2018-09-11T22:03:25.157Z,22.27
2018-09-11T22:05:55.406Z,13.60
2018-09-11T22:08:25.521Z,16.50
2018-09-11T22:10:55.814Z,16.87
2018-09-11T22:13:26.213Z,18.37
2018-09-11T22:15:56.066Z,19.77
2018-09-11T22:18:25.958Z,16.27
2018-09-11T22:20:56.406Z,16.93
2018-09-11T22:23:27.319Z,16.17
2018-09-11T22:25:57.219Z,14.53
2018-09-11T22:28:27.079Z,20.53
2018-09-11T22:30:57.777Z,15.70
2018-09-11T22:33:27.613Z,19.40
2018-09-11T22:35:57.749Z,17.37
2018-09-11T22:38:28.385Z,24.93
2018-09-11T22:40:58.938Z,17.80
2018-09-11T22:43:29.298Z,17.83
2018-09-11T22:46:00.068Z,20.17
2018-09-11T22:48:29.914Z,20.03
2018-09-11T22:50:59.918Z,16.33
2018-09-11T22:53:29.769Z,16.67
2018-09-11T22:56:00.214Z,13.13
2018-09-11T22:58:30.102Z,14.10
2018-09-11T23:00:59.973Z,11.53
2018-09-11T23:03:30.034Z,13.30
2018-09-11T23:06:00.070Z,10.57
2018-09-11T23:08:30.133Z,10.10
2018-09-11T23:11:00.028Z,9.37
2018-09-11T23:13:30.543Z,10.70
2018-09-11T23:16:00.742Z,10.00
2018-09-11T23:18:30.610Z,4.17
2018-09-11T23:21:00.921Z,3.07
2018-09-11T23:23:30.938Z,3.20
2018-09-11T23:26:01.186Z,2.80
2018-09-11T23:28:31.714Z,6.30
2018-09-11T23:31:01.822Z,3.47
2018-09-11T23:33:32.046Z,4.80
2018-09-11T23:36:02.168Z,2.87
2018-09-11T23:38:32.585Z,4.57
2018-09-11T23:41:02.727Z,2.53
2018-09-11T23:43:32.679Z,3.27
2018-09-11T23:46:02.649Z,4.80
2018-09-11T23:48:32.996Z,3.13
2018-09-11T23:51:03.309Z,5.13
2018-09-11T23:53:33.453Z,3.07
2018-09-11T23:56:04.732Z,3.47
2018-09-11T23:58:34.715Z,3.93
